sensor_id;sensor_type;location;lat;lon;timestamp;temperature;humidity
11762;DHT22;5938;47.098;15.474;2024-02-23T00:02:31;7.00;99.90
11762;DHT22;5938;47.098;15.474;2024-02-23T00:06:34;7.10;99.90
11762;DHT22;5938;47.098;15.474;2024-02-23T00:10:38;7.00;99.90
11762;DHT22;5938;47.098;15.474;2024-02-23T00:14:42;7.00;99.90
11762;DHT22;5938;47.098;15.474;2024-02-23T00:18:46;6.90;99.90
11762;DHT22;5938;47.098;15.474;2024-02-23T00:22:49;6.90;99.90
11762;DHT22;5938;47.098;15.474;2024-02-23T00:26:52;6.80;99.90
11762;DHT22;5938;47.098;15.474;2024-02-23T00:30:58;6.70;99.90
11762;DHT22;5938;47.098;15.474;2024-02-23T00:35:02;6.70;99.90
11762;DHT22;5938;47.098;15.474;2024-02-23T00:39:06;6.70;99.90
11762;DHT22;5938;47.098;15.474;2024-02-23T00:43:10;6.60;99.90
11762;DHT22;5938;47.098;15.474;2024-02-23T00:47:14;6.60;99.90
11762;DHT22;5938;47.098;15.474;2024-02-23T00:51:18;6.60;99.90
11762;DHT22;5938;47.098;15.474;2024-02-23T00:55:21;6.60;99.90
11762;DHT22;5938;47.098;15.474;2024-02-23T00:59:27;6.50;99.90
11762;DHT22;5938;47.098;15.474;2024-02-23T01:03:31;6.60;99.90
11762;DHT22;5938;47.098;15.474;2024-02-23T01:07:35;6.60;99.90
11762;DHT22;5938;47.098;15.474;2024-02-23T01:11:38;6.60;99.90
11762;DHT22;5938;47.098;15.474;2024-02-23T01:15:42;6.70;99.90
11762;DHT22;5938;47.098;15.474;2024-02-23T01:19:47;6.80;99.90
11762;DHT22;5938;47.098;15.474;2024-02-23T01:23:51;6.80;99.90
11762;DHT22;5938;47.098;15.474;2024-02-23T01:27:56;6.80;99.90
11762;DHT22;5938;47.098;15.474;2024-02-23T01:32:00;6.80;99.90
11762;DHT22;5938;47.098;15.474;2024-02-23T01:36:05;6.70;99.90
11762;DHT22;5938;47.098;15.474;2024-02-23T01:40:09;6.80;99.90
11762;DHT22;5938;47.098;15.474;2024-02-23T01:44:13;6.70;99.90
11762;DHT22;5938;47.098;15.474;2024-02-23T01:48:17;6.60;99.90
11762;DHT22;5938;47.098;15.474;2024-02-23T01:52:22;6.60;99.90
11762;DHT22;5938;47.098;15.474;2024-02-23T01:56:27;6.60;99.90
11762;DHT22;5938;47.098;15.474;2024-02-23T02:00:31;6.50;99.90
11762;DHT22;5938;47.098;15.474;2024-02-23T02:04:35;6.50;99.90
11762;DHT22;5938;47.098;15.474;2024-02-23T02:08:40;6.50;99.90
11762;DHT22;5938;47.098;15.474;2024-02-23T02:12:43;6.40;99.90
11762;DHT22;5938;47.098;15.474;2024-02-23T02:16:47;6.50;99.90
11762;DHT22;5938;47.098;15.474;2024-02-23T02:20:51;6.40;99.90
11762;DHT22;5938;47.098;15.474;2024-02-23T02:24:58;6.40;99.90
11762;DHT22;5938;47.098;15.474;2024-02-23T02:29:02;6.30;99.90
11762;DHT22;5938;47.098;15.474;2024-02-23T02:33:05;6.30;99.90
11762;DHT22;5938;47.098;15.474;2024-02-23T02:37:09;6.30;99.90
11762;DHT22;5938;47.098;15.474;2024-02-23T02:41:14;6.20;99.90
11762;DHT22;5938;47.098;15.474;2024-02-23T02:45:19;6.30;99.90
11762;DHT22;5938;47.098;15.474;2024-02-23T02:49:22;6.20;99.90
11762;DHT22;5938;47.098;15.474;2024-02-23T02:53:26;6.20;99.90
11762;DHT22;5938;47.098;15.474;2024-02-23T02:57:31;6.20;99.90
11762;DHT22;5938;47.098;15.474;2024-02-23T03:01:34;6.10;99.90
11762;DHT22;5938;47.098;15.474;2024-02-23T03:05:37;6.00;99.90
11762;DHT22;5938;47.098;15.474;2024-02-23T03:09:41;6.00;99.90
11762;DHT22;5938;47.098;15.474;2024-02-23T03:13:45;6.00;99.90
11762;DHT22;5938;47.098;15.474;2024-02-23T03:17:48;6.00;99.90
11762;DHT22;5938;47.098;15.474;2024-02-23T03:21:52;6.00;99.90
11762;DHT22;5938;47.098;15.474;2024-02-23T03:25:55;5.90;99.90
11762;DHT22;5938;47.098;15.474;2024-02-23T03:30:01;6.00;99.90
11762;DHT22;5938;47.098;15.474;2024-02-23T03:34:05;5.90;99.90
11762;DHT22;5938;47.098;15.474;2024-02-23T03:38:09;6.00;99.90
11762;DHT22;5938;47.098;15.474;2024-02-23T03:42:12;6.00;99.90
11762;DHT22;5938;47.098;15.474;2024-02-23T03:46:17;5.90;99.90
11762;DHT22;5938;47.098;15.474;2024-02-23T03:50:21;5.90;99.90
11762;DHT22;5938;47.098;15.474;2024-02-23T03:54:26;6.00;99.90
11762;DHT22;5938;47.098;15.474;2024-02-23T03:58:30;5.90;99.90
11762;DHT22;5938;47.098;15.474;2024-02-23T04:02:34;5.80;99.90
11762;DHT22;5938;47.098;15.474;2024-02-23T04:06:38;5.90;99.90
11762;DHT22;5938;47.098;15.474;2024-02-23T04:10:41;5.90;99.90
11762;DHT22;5938;47.098;15.474;2024-02-23T04:14:45;5.90;99.90
11762;DHT22;5938;47.098;15.474;2024-02-23T04:18:49;5.90;99.90
11762;DHT22;5938;47.098;15.474;2024-02-23T04:22:53;5.90;99.90
11762;DHT22;5938;47.098;15.474;2024-02-23T04:26:58;5.80;99.90
11762;DHT22;5938;47.098;15.474;2024-02-23T04:31:01;5.80;99.90
11762;DHT22;5938;47.098;15.474;2024-02-23T04:35:07;5.90;99.90
11762;DHT22;5938;47.098;15.474;2024-02-23T04:39:13;5.90;99.90
11762;DHT22;5938;47.098;15.474;2024-02-23T04:43:16;5.80;99.90
11762;DHT22;5938;47.098;15.474;2024-02-23T04:47:19;5.80;99.90
11762;DHT22;5938;47.098;15.474;2024-02-23T04:51:25;5.80;99.90
11762;DHT22;5938;47.098;15.474;2024-02-23T04:55:29;5.70;99.90
11762;DHT22;5938;47.098;15.474;2024-02-23T04:59:32;5.80;99.90
11762;DHT22;5938;47.098;15.474;2024-02-23T05:03:36;5.90;99.90
11762;DHT22;5938;47.098;15.474;2024-02-23T05:07:41;5.80;99.90
11762;DHT22;5938;47.098;15.474;2024-02-23T05:11:44;5.80;99.90
11762;DHT22;5938;47.098;15.474;2024-02-23T05:15:49;5.80;99.90
11762;DHT22;5938;47.098;15.474;2024-02-23T05:19:52;5.70;99.90
11762;DHT22;5938;47.098;15.474;2024-02-23T05:23:58;5.80;99.90
11762;DHT22;5938;47.098;15.474;2024-02-23T05:28:03;5.70;99.90
11762;DHT22;5938;47.098;15.474;2024-02-23T05:32:07;5.70;99.90
11762;DHT22;5938;47.098;15.474;2024-02-23T05:36:10;5.60;99.90
11762;DHT22;5938;47.098;15.474;2024-02-23T05:40:16;5.60;99.90
11762;DHT22;5938;47.098;15.474;2024-02-23T05:44:19;5.50;99.90
11762;DHT22;5938;47.098;15.474;2024-02-23T05:48:26;5.50;99.90
11762;DHT22;5938;47.098;15.474;2024-02-23T05:52:31;5.40;99.90
11762;DHT22;5938;47.098;15.474;2024-02-23T05:56:36;5.30;99.90
11762;DHT22;5938;47.098;15.474;2024-02-23T06:00:39;5.20;99.90
11762;DHT22;5938;47.098;15.474;2024-02-23T06:04:43;5.10;99.90
11762;DHT22;5938;47.098;15.474;2024-02-23T06:08:47;5.10;99.90
11762;DHT22;5938;47.098;15.474;2024-02-23T06:12:53;5.10;99.90
11762;DHT22;5938;47.098;15.474;2024-02-23T06:17:02;5.00;99.90
11762;DHT22;5938;47.098;15.474;2024-02-23T06:21:11;5.00;99.90
11762;DHT22;5938;47.098;15.474;2024-02-23T06:25:16;5.00;99.90
11762;DHT22;5938;47.098;15.474;2024-02-23T06:29:21;4.90;99.90
11762;DHT22;5938;47.098;15.474;2024-02-23T06:33:25;5.00;99.90
11762;DHT22;5938;47.098;15.474;2024-02-23T06:37:29;4.90;99.90
11762;DHT22;5938;47.098;15.474;2024-02-23T06:41:36;5.00;99.90
11762;DHT22;5938;47.098;15.474;2024-02-23T06:45:55;5.00;99.90
11762;DHT22;5938;47.098;15.474;2024-02-23T06:50:07;5.00;99.90
11762;DHT22;5938;47.098;15.474;2024-02-23T06:54:15;5.10;99.90
11762;DHT22;5938;47.098;15.474;2024-02-23T06:58:22;5.20;99.90
11762;DHT22;5938;47.098;15.474;2024-02-23T07:02:28;5.30;99.90
11762;DHT22;5938;47.098;15.474;2024-02-23T07:06:33;5.40;99.90
11762;DHT22;5938;47.098;15.474;2024-02-23T07:10:39;5.50;99.90
11762;DHT22;5938;47.098;15.474;2024-02-23T07:14:42;5.50;99.90
11762;DHT22;5938;47.098;15.474;2024-02-23T07:18:47;5.60;99.90
11762;DHT22;5938;47.098;15.474;2024-02-23T07:22:50;5.70;99.90
11762;DHT22;5938;47.098;15.474;2024-02-23T07:26:55;5.90;99.90
11762;DHT22;5938;47.098;15.474;2024-02-23T07:30:58;6.00;99.90
11762;DHT22;5938;47.098;15.474;2024-02-23T07:35:03;6.10;99.90
11762;DHT22;5938;47.098;15.474;2024-02-23T07:39:07;6.30;99.90
11762;DHT22;5938;47.098;15.474;2024-02-23T07:43:10;6.30;99.90
11762;DHT22;5938;47.098;15.474;2024-02-23T07:47:13;6.30;99.90
11762;DHT22;5938;47.098;15.474;2024-02-23T07:51:18;6.40;99.90
11762;DHT22;5938;47.098;15.474;2024-02-23T07:55:22;6.50;99.90
11762;DHT22;5938;47.098;15.474;2024-02-23T07:59:26;6.50;99.90
11762;DHT22;5938;47.098;15.474;2024-02-23T08:03:31;6.60;99.90
11762;DHT22;5938;47.098;15.474;2024-02-23T08:07:36;6.50;99.90
11762;DHT22;5938;47.098;15.474;2024-02-23T08:11:40;6.50;99.90
11762;DHT22;5938;47.098;15.474;2024-02-23T08:15:43;6.60;99.90
11762;DHT22;5938;47.098;15.474;2024-02-23T08:19:47;6.70;99.90
11762;DHT22;5938;47.098;15.474;2024-02-23T08:23:52;6.80;99.90
11762;DHT22;5938;47.098;15.474;2024-02-23T08:27:56;6.90;99.90
11762;DHT22;5938;47.098;15.474;2024-02-23T08:32:01;6.90;99.90
11762;DHT22;5938;47.098;15.474;2024-02-23T08:36:05;7.00;99.90
11762;DHT22;5938;47.098;15.474;2024-02-23T08:40:11;7.10;99.90
11762;DHT22;5938;47.098;15.474;2024-02-23T08:44:14;7.20;99.90
11762;DHT22;5938;47.098;15.474;2024-02-23T08:48:17;7.20;99.90
11762;DHT22;5938;47.098;15.474;2024-02-23T08:52:22;7.20;99.90
11762;DHT22;5938;47.098;15.474;2024-02-23T08:56:28;7.20;99.90
11762;DHT22;5938;47.098;15.474;2024-02-23T09:00:34;7.20;99.90
11762;DHT22;5938;47.098;15.474;2024-02-23T09:04:39;7.20;99.90
11762;DHT22;5938;47.098;15.474;2024-02-23T09:08:42;7.30;99.90
11762;DHT22;5938;47.098;15.474;2024-02-23T09:12:47;7.40;99.90
11762;DHT22;5938;47.098;15.474;2024-02-23T09:16:50;7.50;99.90
11762;DHT22;5938;47.098;15.474;2024-02-23T09:20:55;7.60;99.90
11762;DHT22;5938;47.098;15.474;2024-02-23T09:24:58;7.50;99.90
11762;DHT22;5938;47.098;15.474;2024-02-23T09:29:03;7.40;99.90
11762;DHT22;5938;47.098;15.474;2024-02-23T09:33:06;7.40;99.90
11762;DHT22;5938;47.098;15.474;2024-02-23T09:37:10;7.30;99.90
11762;DHT22;5938;47.098;15.474;2024-02-23T09:41:19;7.30;99.90
11762;DHT22;5938;47.098;15.474;2024-02-23T09:45:25;7.30;99.90
11762;DHT22;5938;47.098;15.474;2024-02-23T09:49:30;7.30;99.90
11762;DHT22;5938;47.098;15.474;2024-02-23T09:53:36;7.30;99.90
11762;DHT22;5938;47.098;15.474;2024-02-23T09:57:42;7.30;99.90
11762;DHT22;5938;47.098;15.474;2024-02-23T10:01:47;7.40;99.90
11762;DHT22;5938;47.098;15.474;2024-02-23T10:05:55;7.40;99.90
11762;DHT22;5938;47.098;15.474;2024-02-23T10:09:59;7.40;99.90
11762;DHT22;5938;47.098;15.474;2024-02-23T10:14:03;7.30;99.90
11762;DHT22;5938;47.098;15.474;2024-02-23T10:18:08;7.30;99.90
11762;DHT22;5938;47.098;15.474;2024-02-23T10:22:12;7.30;99.90
11762;DHT22;5938;47.098;15.474;2024-02-23T10:26:16;7.30;99.90
11762;DHT22;5938;47.098;15.474;2024-02-23T10:30:21;7.30;99.90
11762;DHT22;5938;47.098;15.474;2024-02-23T10:34:27;7.30;99.90
11762;DHT22;5938;47.098;15.474;2024-02-23T10:38:33;7.30;99.90
11762;DHT22;5938;47.098;15.474;2024-02-23T10:42:39;7.30;99.90
11762;DHT22;5938;47.098;15.474;2024-02-23T10:46:44;7.30;99.90
11762;DHT22;5938;47.098;15.474;2024-02-23T10:50:50;7.30;99.90
11762;DHT22;5938;47.098;15.474;2024-02-23T10:54:54;7.40;99.90
11762;DHT22;5938;47.098;15.474;2024-02-23T10:58:58;7.40;99.90
11762;DHT22;5938;47.098;15.474;2024-02-23T11:03:03;7.40;99.90
11762;DHT22;5938;47.098;15.474;2024-02-23T11:07:14;7.40;99.90
11762;DHT22;5938;47.098;15.474;2024-02-23T11:11:17;7.50;99.90
11762;DHT22;5938;47.098;15.474;2024-02-23T11:15:28;7.60;99.90
11762;DHT22;5938;47.098;15.474;2024-02-23T11:19:37;7.70;99.90
11762;DHT22;5938;47.098;15.474;2024-02-23T11:23:43;7.70;99.90
11762;DHT22;5938;47.098;15.474;2024-02-23T11:27:49;7.70;99.90
11762;DHT22;5938;47.098;15.474;2024-02-23T11:31:53;7.70;99.90
11762;DHT22;5938;47.098;15.474;2024-02-23T11:36:05;7.70;99.90
11762;DHT22;5938;47.098;15.474;2024-02-23T11:40:12;7.80;99.90
11762;DHT22;5938;47.098;15.474;2024-02-23T11:44:16;7.80;99.90
11762;DHT22;5938;47.098;15.474;2024-02-23T11:48:19;8.10;99.90
11762;DHT22;5938;47.098;15.474;2024-02-23T11:52:26;8.20;99.90
11762;DHT22;5938;47.098;15.474;2024-02-23T11:56:31;8.20;99.90
11762;DHT22;5938;47.098;15.474;2024-02-23T12:00:35;8.10;99.90
11762;DHT22;5938;47.098;15.474;2024-02-23T12:04:39;7.90;99.90
11762;DHT22;5938;47.098;15.474;2024-02-23T12:08:42;7.90;99.90
11762;DHT22;5938;47.098;15.474;2024-02-23T12:12:50;7.90;99.90
11762;DHT22;5938;47.098;15.474;2024-02-23T12:16:53;7.90;99.90
11762;DHT22;5938;47.098;15.474;2024-02-23T12:20:59;8.00;99.90
11762;DHT22;5938;47.098;15.474;2024-02-23T12:25:04;8.20;99.90
11762;DHT22;5938;47.098;15.474;2024-02-23T12:29:10;8.20;99.90
11762;DHT22;5938;47.098;15.474;2024-02-23T12:33:15;8.30;99.90
11762;DHT22;5938;47.098;15.474;2024-02-23T12:37:19;8.00;99.90
11762;DHT22;5938;47.098;15.474;2024-02-23T12:41:25;7.90;99.90
11762;DHT22;5938;47.098;15.474;2024-02-23T12:45:30;8.00;99.90
11762;DHT22;5938;47.098;15.474;2024-02-23T12:49:34;8.10;99.90
11762;DHT22;5938;47.098;15.474;2024-02-23T12:53:39;8.00;99.90
11762;DHT22;5938;47.098;15.474;2024-02-23T12:57:43;8.20;99.90
11762;DHT22;5938;47.098;15.474;2024-02-23T13:01:48;8.20;99.90
11762;DHT22;5938;47.098;15.474;2024-02-23T13:05:55;8.20;99.90
11762;DHT22;5938;47.098;15.474;2024-02-23T13:09:59;8.30;99.90
11762;DHT22;5938;47.098;15.474;2024-02-23T13:14:02;8.30;99.90
11762;DHT22;5938;47.098;15.474;2024-02-23T13:18:07;8.30;99.90
11762;DHT22;5938;47.098;15.474;2024-02-23T13:22:11;8.30;99.90
11762;DHT22;5938;47.098;15.474;2024-02-23T13:26:14;8.20;99.90
11762;DHT22;5938;47.098;15.474;2024-02-23T13:30:18;8.20;99.90
11762;DHT22;5938;47.098;15.474;2024-02-23T13:34:22;8.20;99.90
11762;DHT22;5938;47.098;15.474;2024-02-23T13:38:27;8.20;99.90
11762;DHT22;5938;47.098;15.474;2024-02-23T13:42:31;8.10;99.90
11762;DHT22;5938;47.098;15.474;2024-02-23T13:46:38;8.00;99.90
11762;DHT22;5938;47.098;15.474;2024-02-23T13:50:43;8.00;99.90
11762;DHT22;5938;47.098;15.474;2024-02-23T13:54:47;8.00;99.90
11762;DHT22;5938;47.098;15.474;2024-02-23T13:58:51;7.90;99.90
11762;DHT22;5938;47.098;15.474;2024-02-23T14:02:55;7.90;99.90
11762;DHT22;5938;47.098;15.474;2024-02-23T14:07:03;7.90;99.90
11762;DHT22;5938;47.098;15.474;2024-02-23T14:11:07;7.90;99.90
11762;DHT22;5938;47.098;15.474;2024-02-23T14:15:11;7.90;99.90
11762;DHT22;5938;47.098;15.474;2024-02-23T14:19:14;7.90;99.90
11762;DHT22;5938;47.098;15.474;2024-02-23T14:23:19;8.00;99.90
11762;DHT22;5938;47.098;15.474;2024-02-23T14:27:23;7.90;99.90
11762;DHT22;5938;47.098;15.474;2024-02-23T14:31:28;7.80;99.90
11762;DHT22;5938;47.098;15.474;2024-02-23T14:35:33;7.80;99.90
11762;DHT22;5938;47.098;15.474;2024-02-23T14:39:37;7.80;99.90
11762;DHT22;5938;47.098;15.474;2024-02-23T14:43:41;7.70;99.90
11762;DHT22;5938;47.098;15.474;2024-02-23T14:47:44;7.70;99.90
11762;DHT22;5938;47.098;15.474;2024-02-23T14:51:48;7.60;99.90
11762;DHT22;5938;47.098;15.474;2024-02-23T14:55:52;7.60;99.90
11762;DHT22;5938;47.098;15.474;2024-02-23T14:59:56;7.60;99.90
11762;DHT22;5938;47.098;15.474;2024-02-23T15:03:59;7.60;99.90
11762;DHT22;5938;47.098;15.474;2024-02-23T15:08:04;7.60;99.90
11762;DHT22;5938;47.098;15.474;2024-02-23T15:12:11;7.60;99.90
11762;DHT22;5938;47.098;15.474;2024-02-23T15:16:15;7.50;99.90
11762;DHT22;5938;47.098;15.474;2024-02-23T15:20:20;7.50;99.90
11762;DHT22;5938;47.098;15.474;2024-02-23T15:24:23;7.50;99.90
11762;DHT22;5938;47.098;15.474;2024-02-23T15:28:28;7.50;99.90
11762;DHT22;5938;47.098;15.474;2024-02-23T15:32:32;7.50;99.90
11762;DHT22;5938;47.098;15.474;2024-02-23T15:36:36;7.40;99.90
11762;DHT22;5938;47.098;15.474;2024-02-23T15:40:40;7.50;99.90
11762;DHT22;5938;47.098;15.474;2024-02-23T15:44:44;7.50;99.90
11762;DHT22;5938;47.098;15.474;2024-02-23T15:48:48;7.40;99.90
11762;DHT22;5938;47.098;15.474;2024-02-23T15:52:51;7.40;99.90
11762;DHT22;5938;47.098;15.474;2024-02-23T15:56:55;7.40;99.90
11762;DHT22;5938;47.098;15.474;2024-02-23T16:01:00;7.40;99.90
11762;DHT22;5938;47.098;15.474;2024-02-23T16:05:06;7.30;99.90
11762;DHT22;5938;47.098;15.474;2024-02-23T16:09:10;7.30;99.90
11762;DHT22;5938;47.098;15.474;2024-02-23T16:13:18;7.20;99.90
11762;DHT22;5938;47.098;15.474;2024-02-23T16:17:23;7.30;99.90
11762;DHT22;5938;47.098;15.474;2024-02-23T16:21:26;7.20;99.90
11762;DHT22;5938;47.098;15.474;2024-02-23T16:25:31;7.20;99.90
11762;DHT22;5938;47.098;15.474;2024-02-23T16:29:35;7.10;99.90
11762;DHT22;5938;47.098;15.474;2024-02-23T16:33:40;7.10;99.90
11762;DHT22;5938;47.098;15.474;2024-02-23T16:37:44;7.10;99.90
11762;DHT22;5938;47.098;15.474;2024-02-23T16:41:47;7.00;99.90
11762;DHT22;5938;47.098;15.474;2024-02-23T16:45:50;7.10;99.90
11762;DHT22;5938;47.098;15.474;2024-02-23T16:49:55;7.10;99.90
11762;DHT22;5938;47.098;15.474;2024-02-23T16:53:58;7.10;99.90
11762;DHT22;5938;47.098;15.474;2024-02-23T16:58:03;7.10;99.90
11762;DHT22;5938;47.098;15.474;2024-02-23T17:02:06;7.00;99.90
11762;DHT22;5938;47.098;15.474;2024-02-23T17:06:12;7.10;99.90
11762;DHT22;5938;47.098;15.474;2024-02-23T17:10:15;7.10;99.90
11762;DHT22;5938;47.098;15.474;2024-02-23T17:14:19;7.10;99.90
11762;DHT22;5938;47.098;15.474;2024-02-23T17:18:22;7.10;99.90
11762;DHT22;5938;47.098;15.474;2024-02-23T17:22:27;7.10;99.90
11762;DHT22;5938;47.098;15.474;2024-02-23T17:26:31;7.10;99.90
11762;DHT22;5938;47.098;15.474;2024-02-23T17:30:35;7.10;99.90
11762;DHT22;5938;47.098;15.474;2024-02-23T17:34:39;7.10;99.90
11762;DHT22;5938;47.098;15.474;2024-02-23T17:38:43;7.10;99.90
11762;DHT22;5938;47.098;15.474;2024-02-23T17:42:47;7.10;99.90
11762;DHT22;5938;47.098;15.474;2024-02-23T17:46:50;7.20;99.90
11762;DHT22;5938;47.098;15.474;2024-02-23T17:50:54;7.10;99.90
11762;DHT22;5938;47.098;15.474;2024-02-23T17:54:59;7.10;99.90
11762;DHT22;5938;47.098;15.474;2024-02-23T17:59:04;7.10;99.90
11762;DHT22;5938;47.098;15.474;2024-02-23T18:03:08;7.20;99.90
11762;DHT22;5938;47.098;15.474;2024-02-23T18:07:11;7.20;99.90
11762;DHT22;5938;47.098;15.474;2024-02-23T18:11:17;7.20;99.90
11762;DHT22;5938;47.098;15.474;2024-02-23T18:15:22;7.20;99.90
11762;DHT22;5938;47.098;15.474;2024-02-23T18:19:27;7.20;99.90
11762;DHT22;5938;47.098;15.474;2024-02-23T18:23:32;7.30;99.90
11762;DHT22;5938;47.098;15.474;2024-02-23T18:27:38;7.20;99.90
11762;DHT22;5938;47.098;15.474;2024-02-23T18:31:41;7.20;99.90
11762;DHT22;5938;47.098;15.474;2024-02-23T18:35:45;7.30;99.90
11762;DHT22;5938;47.098;15.474;2024-02-23T18:39:48;7.20;99.90
11762;DHT22;5938;47.098;15.474;2024-02-23T18:43:54;7.20;99.90
11762;DHT22;5938;47.098;15.474;2024-02-23T18:47:57;7.20;99.90
11762;DHT22;5938;47.098;15.474;2024-02-23T18:52:03;7.20;99.90
11762;DHT22;5938;47.098;15.474;2024-02-23T18:56:09;7.30;99.90
11762;DHT22;5938;47.098;15.474;2024-02-23T19:00:15;7.30;99.90
11762;DHT22;5938;47.098;15.474;2024-02-23T19:04:19;7.30;99.90
11762;DHT22;5938;47.098;15.474;2024-02-23T19:08:22;7.20;99.90
11762;DHT22;5938;47.098;15.474;2024-02-23T19:12:25;7.30;99.90
11762;DHT22;5938;47.098;15.474;2024-02-23T19:16:31;7.30;99.90
11762;DHT22;5938;47.098;15.474;2024-02-23T19:20:34;7.30;99.90
11762;DHT22;5938;47.098;15.474;2024-02-23T19:24:38;7.20;99.90
11762;DHT22;5938;47.098;15.474;2024-02-23T19:28:42;7.20;99.90
11762;DHT22;5938;47.098;15.474;2024-02-23T19:32:47;7.30;99.90
11762;DHT22;5938;47.098;15.474;2024-02-23T19:36:51;7.30;99.90
11762;DHT22;5938;47.098;15.474;2024-02-23T19:40:56;7.30;99.90
11762;DHT22;5938;47.098;15.474;2024-02-23T19:45:03;7.20;99.90
11762;DHT22;5938;47.098;15.474;2024-02-23T19:49:09;7.30;99.90
11762;DHT22;5938;47.098;15.474;2024-02-23T19:53:13;7.20;99.90
11762;DHT22;5938;47.098;15.474;2024-02-23T19:57:17;7.10;99.90
11762;DHT22;5938;47.098;15.474;2024-02-23T20:01:20;7.10;99.90
11762;DHT22;5938;47.098;15.474;2024-02-23T20:05:25;7.20;99.90
11762;DHT22;5938;47.098;15.474;2024-02-23T20:09:29;7.10;99.90
11762;DHT22;5938;47.098;15.474;2024-02-23T20:13:33;7.10;99.90
11762;DHT22;5938;47.098;15.474;2024-02-23T20:17:36;7.10;99.90
11762;DHT22;5938;47.098;15.474;2024-02-23T20:21:41;7.10;99.90
11762;DHT22;5938;47.098;15.474;2024-02-23T20:25:44;7.00;99.90
11762;DHT22;5938;47.098;15.474;2024-02-23T20:29:48;7.00;99.90
11762;DHT22;5938;47.098;15.474;2024-02-23T20:33:52;7.00;99.90
11762;DHT22;5938;47.098;15.474;2024-02-23T20:37:57;7.00;99.90
11762;DHT22;5938;47.098;15.474;2024-02-23T20:42:01;6.90;99.90
11762;DHT22;5938;47.098;15.474;2024-02-23T20:46:09;6.90;99.90
11762;DHT22;5938;47.098;15.474;2024-02-23T20:50:12;6.90;99.90
11762;DHT22;5938;47.098;15.474;2024-02-23T20:54:17;6.90;99.90
11762;DHT22;5938;47.098;15.474;2024-02-23T20:58:21;6.90;99.90
11762;DHT22;5938;47.098;15.474;2024-02-23T21:02:24;7.00;99.90
11762;DHT22;5938;47.098;15.474;2024-02-23T21:06:29;7.00;99.90
11762;DHT22;5938;47.098;15.474;2024-02-23T21:10:34;6.90;99.90
11762;DHT22;5938;47.098;15.474;2024-02-23T21:14:37;6.90;99.90
11762;DHT22;5938;47.098;15.474;2024-02-23T21:18:42;6.90;99.90
11762;DHT22;5938;47.098;15.474;2024-02-23T21:22:45;6.90;99.90
11762;DHT22;5938;47.098;15.474;2024-02-23T21:26:50;7.00;99.90
11762;DHT22;5938;47.098;15.474;2024-02-23T21:30:55;7.00;99.90
11762;DHT22;5938;47.098;15.474;2024-02-23T21:35:06;7.00;99.90
11762;DHT22;5938;47.098;15.474;2024-02-23T21:39:09;7.00;99.90
11762;DHT22;5938;47.098;15.474;2024-02-23T21:43:14;7.00;99.90
11762;DHT22;5938;47.098;15.474;2024-02-23T21:47:18;7.00;99.90
11762;DHT22;5938;47.098;15.474;2024-02-23T21:51:21;6.90;99.90
11762;DHT22;5938;47.098;15.474;2024-02-23T21:55:24;6.80;99.90
11762;DHT22;5938;47.098;15.474;2024-02-23T21:59:30;7.00;99.90
11762;DHT22;5938;47.098;15.474;2024-02-23T22:03:33;6.90;99.90
11762;DHT22;5938;47.098;15.474;2024-02-23T22:07:37;6.90;99.90
11762;DHT22;5938;47.098;15.474;2024-02-23T22:11:41;6.90;99.90
11762;DHT22;5938;47.098;15.474;2024-02-23T22:15:46;6.90;99.90
11762;DHT22;5938;47.098;15.474;2024-02-23T22:19:49;6.90;99.90
11762;DHT22;5938;47.098;15.474;2024-02-23T22:23:53;6.90;99.90
11762;DHT22;5938;47.098;15.474;2024-02-23T22:27:56;6.80;99.90
11762;DHT22;5938;47.098;15.474;2024-02-23T22:32:01;6.70;99.90
11762;DHT22;5938;47.098;15.474;2024-02-23T22:36:07;6.70;99.90
11762;DHT22;5938;47.098;15.474;2024-02-23T22:40:11;6.50;99.90
11762;DHT22;5938;47.098;15.474;2024-02-23T22:44:16;6.50;99.90
11762;DHT22;5938;47.098;15.474;2024-02-23T22:48:21;6.40;99.90
11762;DHT22;5938;47.098;15.474;2024-02-23T22:52:25;6.50;99.90
11762;DHT22;5938;47.098;15.474;2024-02-23T22:56:28;6.50;99.90
11762;DHT22;5938;47.098;15.474;2024-02-23T23:00:33;6.50;99.90
11762;DHT22;5938;47.098;15.474;2024-02-23T23:04:37;6.40;99.90
11762;DHT22;5938;47.098;15.474;2024-02-23T23:08:41;6.10;99.90
11762;DHT22;5938;47.098;15.474;2024-02-23T23:12:45;6.10;99.90
11762;DHT22;5938;47.098;15.474;2024-02-23T23:16:48;5.90;99.90
11762;DHT22;5938;47.098;15.474;2024-02-23T23:20:53;5.80;99.90
11762;DHT22;5938;47.098;15.474;2024-02-23T23:24:57;5.70;99.90
11762;DHT22;5938;47.098;15.474;2024-02-23T23:29:00;5.70;99.90
11762;DHT22;5938;47.098;15.474;2024-02-23T23:33:04;5.80;99.90
11762;DHT22;5938;47.098;15.474;2024-02-23T23:37:11;5.90;99.90
11762;DHT22;5938;47.098;15.474;2024-02-23T23:41:14;5.90;99.90
11762;DHT22;5938;47.098;15.474;2024-02-23T23:45:18;5.90;99.90
11762;DHT22;5938;47.098;15.474;2024-02-23T23:49:21;5.90;99.90
11762;DHT22;5938;47.098;15.474;2024-02-23T23:53:26;5.90;99.90
11762;DHT22;5938;47.098;15.474;2024-02-23T23:57:31;6.00;99.90
